Terminal Aerodrome Forecast
Issued by NWS Sterling, VA

Current Version | Previous Version | Graphics & Text | Print | Product List | Glossary On
Versions: 1 2 3 4 5 6 7 8 9 10 11 12 13 14 15 16 17 18 19
000
FTUS41 KLWX 161740
TAFMRB
TAF
KMRB 161740Z 1618/1718 31014G19KT P6SM -SHRA OVC040
     FM162000 31018G29KT P6SM OVC040
     FM162200 31018G29KT P6SM BKN130
     FM170000 32015G22KT P6SM SCT200
     FM170300 32010KT P6SM SKC
     FM171100 04004KT P6SM FEW200
     FM171400 11005KT P6SM SCT150=

USA.gov is the U.S. government's official web portal to all federal, state and local government web resources and services.